Time;durP1;ratioP1;P1;durP2;ratioP2;P2;SDS_P1;SDS_P2;PMS_P1;PMS_P2;Temp;Humidity;BMP_temperature;BMP_pressure;BME280_temperature;BME280_humidity;BME280_pressure;Samples;Min_cycle;Max_cycle;Signal;HPM_P1;HPM_P2
2021/10/10 00:00:25;;;;;;;20.60;7.00;;;;;;;10.46;33.29;101649.09;4999941;28;20078;-73
2021/10/10 00:02:52;;;;;;;17.63;7.67;;;;;;;10.47;33.41;101650.66;5005784;28;20053;-73
2021/10/10 00:05:19;;;;;;;17.13;7.53;;;;;;;10.45;33.36;101650.25;5004299;28;20418;-73
2021/10/10 00:07:45;;;;;;;18.57;7.87;;;;;;;10.46;33.15;101651.81;5006602;28;20089;-73
2021/10/10 00:10:15;;;;;;;17.30;7.53;;;;;;;10.45;33.78;101652.97;5007363;28;20073;-73
2021/10/10 00:12:42;;;;;;;24.93;8.57;;;;;;;10.48;33.16;101644.06;4999678;28;20153;-74
2021/10/10 00:15:12;;;;;;;15.97;7.20;;;;;;;10.46;33.83;101640.97;5007229;28;20125;-73
2021/10/10 00:17:39;;;;;;;21.00;8.87;;;;;;;10.45;33.97;101646.75;5007703;28;20492;-74
2021/10/10 00:20:07;;;;;;;19.37;7.77;;;;;;;10.44;33.90;101645.97;5008007;28;20046;-73
2021/10/10 00:22:34;;;;;;;18.03;8.20;;;;;;;10.42;33.68;101640.16;5006823;28;20144;-74
2021/10/10 00:25:01;;;;;;;21.10;8.47;;;;;;;10.44;33.74;101645.97;5008384;28;20049;-74
2021/10/10 00:27:27;;;;;;;17.63;7.43;;;;;;;10.44;34.06;101639.78;5003325;28;20145;-73
2021/10/10 00:29:54;;;;;;;14.83;6.67;;;;;;;10.43;33.72;101644.44;5001435;28;20085;-73
2021/10/10 00:32:21;;;;;;;15.80;6.40;;;;;;;10.42;33.52;101651.00;5010101;28;20527;-74
2021/10/10 00:34:48;;;;;;;17.43;6.20;;;;;;;10.43;33.54;101647.13;5005124;28;20072;-74
2021/10/10 00:37:15;;;;;;;17.97;7.10;;;;;;;10.41;33.73;101652.16;5007633;28;20137;-72
2021/10/10 00:39:41;;;;;;;15.07;5.80;;;;;;;10.39;33.98;101640.94;5005921;28;20096;-73
2021/10/10 00:42:08;;;;;;;11.73;5.33;;;;;;;10.38;34.09;101639.38;5008847;28;20529;-73
2021/10/10 00:44:35;;;;;;;16.73;6.43;;;;;;;10.38;33.98;101642.09;5007127;28;20153;-74
2021/10/10 00:47:02;;;;;;;14.73;6.33;;;;;;;10.38;33.94;101642.09;5010564;28;20427;-73
2021/10/10 00:49:29;;;;;;;13.67;7.10;;;;;;;10.40;33.92;101637.03;5011920;28;20490;-72
2021/10/10 00:51:58;;;;;;;19.33;6.33;;;;;;;10.41;34.34;101638.59;5006806;28;20077;-73
2021/10/10 00:54:27;;;;;;;16.17;7.13;;;;;;;10.40;34.12;101637.03;4999983;28;20081;-72
2021/10/10 00:56:57;;;;;;;18.63;7.77;;;;;;;10.37;34.71;101637.03;5006619;28;20068;-73
2021/10/10 00:59:24;;;;;;;23.43;7.93;;;;;;;10.35;34.83;101636.63;5005415;28;20145;-73
2021/10/10 01:01:51;;;;;;;24.73;8.30;;;;;;;10.35;34.37;101637.41;5004838;28;20142;-73
2021/10/10 01:04:19;;;;;;;20.90;8.63;;;;;;;10.37;34.33;101640.53;5005016;28;20046;-73
2021/10/10 01:06:46;;;;;;;20.87;8.43;;;;;;;10.37;34.85;101640.53;5007325;28;20077;-72
2021/10/10 01:09:14;;;;;;;24.53;8.03;;;;;;;10.36;35.00;101643.63;5002321;28;20149;-72
2021/10/10 01:11:42;;;;;;;16.83;7.37;;;;;;;10.32;34.85;101642.81;5007878;28;20149;-72
2021/10/10 01:14:10;;;;;;;16.43;7.47;;;;;;;10.33;34.69;101645.16;5011169;28;20133;-72
2021/10/10 01:16:37;;;;;;;15.37;7.07;;;;;;;10.33;34.42;101639.72;5011703;28;20188;-72
2021/10/10 01:19:06;;;;;;;15.10;6.70;;;;;;;10.28;34.75;101639.31;5009200;28;20053;-72
2021/10/10 01:21:34;;;;;;;22.60;7.43;;;;;;;10.25;34.98;101638.13;5006655;28;20196;-74
2021/10/10 01:24:03;;;;;;;19.00;7.70;;;;;;;10.25;35.05;101643.56;5002728;28;20042;-73
2021/10/10 01:26:34;;;;;;;18.50;8.10;;;;;;;10.21;35.56;101648.16;5009494;28;20108;-74
2021/10/10 01:29:01;;;;;;;12.23;5.47;;;;;;;10.19;35.04;101645.84;5011540;28;20046;-73
2021/10/10 01:31:28;;;;;;;12.93;5.40;;;;;;;10.18;35.71;101648.91;5006734;28;20142;-72
2021/10/10 01:33:55;;;;;;;10.70;5.23;;;;;;;10.14;35.46;101626.41;5010445;28;20046;-73
2021/10/10 01:36:22;;;;;;;13.50;5.50;;;;;;;10.14;35.44;101639.97;5011505;28;20089;-73
2021/10/10 01:38:48;;;;;;;15.30;5.20;;;;;;;10.13;35.67;101647.34;5011557;28;20136;-73
2021/10/10 01:41:15;;;;;;;10.77;5.27;;;;;;;10.14;35.58;101638.03;5005593;28;20045;-73
2021/10/10 01:43:42;;;;;;;9.93;5.77;;;;;;;10.14;35.60;101642.69;5009904;28;20141;-73
2021/10/10 01:46:10;;;;;;;11.07;4.93;;;;;;;10.15;35.22;101645.03;5008893;28;20081;-74
2021/10/10 01:48:37;;;;;;;8.23;5.30;;;;;;;10.14;36.02;101642.69;5008041;28;20136;-74
2021/10/10 01:51:04;;;;;;;11.17;5.53;;;;;;;10.16;35.32;101646.56;5008082;28;20133;-73
2021/10/10 01:53:31;;;;;;;15.20;5.10;;;;;;;10.14;35.15;101648.91;5012251;28;20569;-72
2021/10/10 01:55:58;;;;;;;11.57;5.43;;;;;;;10.15;35.15;101652.38;5009235;28;20137;-73
2021/10/10 01:58:25;;;;;;;11.70;5.30;;;;;;;10.13;35.24;101644.63;5011290;28;20092;-73
2021/10/10 02:00:51;;;;;;;11.43;4.63;;;;;;;10.09;35.68;101640.31;5021742;28;20160;-73
2021/10/10 02:03:19;;;;;;;11.70;6.50;;;;;;;10.10;35.63;101641.88;5006704;28;20430;-73
2021/10/10 02:05:46;;;;;;;12.83;4.53;;;;;;;10.09;35.82;101645.75;5006026;28;20077;-73
2021/10/10 02:08:13;;;;;;;12.13;5.07;;;;;;;10.09;35.43;101643.03;5018666;28;20555;-74
2021/10/10 02:10:40;;;;;;;8.17;4.60;;;;;;;10.10;36.02;101650.81;5023242;28;20060;-74
2021/10/10 02:13:06;;;;;;;12.83;5.67;;;;;;;10.09;35.62;101651.97;5006804;28;20077;-73
2021/10/10 02:15:34;;;;;;;10.47;4.90;;;;;;;10.09;36.09;101656.59;5007244;28;20602;-72
2021/10/10 02:18:01;;;;;;;9.47;5.73;;;;;;;10.10;36.09;101652.72;5002720;28;20410;-72
2021/10/10 02:20:28;;;;;;;12.63;5.37;;;;;;;10.10;35.92;101653.50;5009841;28;20050;-72
2021/10/10 02:22:55;;;;;;;14.33;5.27;;;;;;;10.11;36.28;101655.06;5011287;28;20053;-75
2021/10/10 02:25:22;;;;;;;12.77;5.60;;;;;;;10.11;35.86;101662.44;5007762;28;20050;-73
2021/10/10 02:27:49;;;;;;;11.50;5.10;;;;;;;10.10;35.98;101658.94;5011195;28;20522;-73
2021/10/10 02:30:16;;;;;;;11.37;5.67;;;;;;;10.10;35.83;101658.94;5008351;28;20128;-73
2021/10/10 02:32:43;;;;;;;12.80;5.50;;;;;;;10.09;35.80;101670.16;5019591;28;20050;-73
2021/10/10 02:35:10;;;;;;;13.47;5.87;;;;;;;10.10;35.98;101652.72;5011830;28;20403;-73
2021/10/10 02:37:36;;;;;;;17.23;6.63;;;;;;;10.11;36.04;101659.72;5008057;28;20129;-73
2021/10/10 02:40:05;;;;;;;17.50;5.87;;;;;;;10.11;36.20;101654.28;5005053;28;20133;-72
2021/10/10 02:42:32;;;;;;;12.70;6.50;;;;;;;10.11;35.65;101654.28;5004738;28;20129;-75
2021/10/10 02:44:58;;;;;;;10.10;5.50;;;;;;;10.12;35.60;101655.84;5002842;28;20508;-72
2021/10/10 02:47:25;;;;;;;13.40;5.83;;;;;;;10.15;35.64;101655.09;5011669;28;20053;-74
2021/10/10 02:49:52;;;;;;;12.90;6.27;;;;;;;10.12;36.23;101653.13;5024056;28;20061;-74
2021/10/10 02:52:21;;;;;;;11.63;5.30;;;;;;;10.14;36.01;101646.19;5009306;28;20149;-72
2021/10/10 02:54:48;;;;;;;12.53;5.17;;;;;;;10.10;36.12;101641.88;5024830;28;20069;-73
2021/10/10 02:57:14;;;;;;;12.17;5.50;;;;;;;10.07;36.06;101648.06;5005638;28;20573;-73
2021/10/10 02:59:41;;;;;;;9.63;5.60;;;;;;;10.06;36.09;101649.22;5014681;28;20137;-73
2021/10/10 03:02:08;;;;;;;11.60;6.60;;;;;;;10.05;36.16;101644.94;5011421;28;20042;-73
2021/10/10 03:04:35;;;;;;;11.60;5.63;;;;;;;10.06;35.92;101641.84;5005262;28;20156;-72
2021/10/10 03:07:02;;;;;;;17.27;6.60;;;;;;;10.07;36.22;101637.22;5008745;28;20070;-73
2021/10/10 03:09:29;;;;;;;21.67;7.57;;;;;;;10.03;36.08;101631.75;5003927;28;20156;-73
2021/10/10 03:11:56;;;;;;;17.83;7.70;;;;;;;10.06;36.10;101630.22;5016089;28;20108;-72
2021/10/10 03:14:23;;;;;;;27.50;10.17;;;;;;;10.09;36.29;101637.59;5009047;28;20538;-73
2021/10/10 03:16:49;;;;;;;21.00;10.33;;;;;;;10.12;36.65;101634.16;5009626;28;20144;-73
2021/10/10 03:19:16;;;;;;;26.70;10.00;;;;;;;10.11;36.54;101627.94;5007111;28;20054;-72
2021/10/10 03:21:43;;;;;;;22.47;10.90;;;;;;;10.07;36.60;101631.78;5009065;28;20150;-73
2021/10/10 03:24:10;;;;;;;35.17;11.93;;;;;;;10.09;36.42;101627.53;5008640;28;20131;-74
2021/10/10 03:26:36;;;;;;;31.73;12.87;;;;;;;10.11;36.61;101633.38;5004006;28;20572;-73
2021/10/10 03:29:03;;;;;;;32.27;12.40;;;;;;;10.11;36.85;101627.16;5008472;28;20134;-72
2021/10/10 03:31:30;;;;;;;40.97;13.20;;;;;;;10.13;36.60;101633.00;5020487;28;20137;-73
2021/10/10 03:33:57;;;;;;;26.13;11.70;;;;;;;10.13;36.55;101631.06;5005928;28;20137;-73
2021/10/10 03:36:24;;;;;;;35.97;13.30;;;;;;;10.14;36.71;101631.84;5006810;28;20132;-73
2021/10/10 03:38:50;;;;;;;36.17;13.63;;;;;;;10.15;36.75;101633.41;5004082;28;20142;-73
2021/10/10 03:41:17;;;;;;;28.23;11.97;;;;;;;10.12;36.63;101634.94;5009537;28;20048;-72
2021/10/10 03:43:44;;;;;;;29.23;10.67;;;;;;;10.11;36.73;101638.00;5003416;28;20092;-75
2021/10/10 03:46:11;;;;;;;33.20;10.77;;;;;;;10.09;36.90;101641.09;5006358;28;20137;-74
2021/10/10 03:48:38;;;;;;;22.37;10.50;;;;;;;10.05;37.30;101634.09;5009925;28;20061;-73
2021/10/10 03:51:05;;;;;;;23.00;9.07;;;;;;;10.03;37.34;101641.81;5001302;28;20080;-73
2021/10/10 03:53:58;;;;;;;20.60;7.83;;;;;;;10.00;37.31;101642.56;5009886;28;20052;-73
2021/10/10 03:56:21;;;;;;;26.77;9.03;;;;;;;9.99;36.92;101646.44;5004461;28;20156;-72
2021/10/10 03:58:48;;;;;;;18.80;7.47;;;;;;;9.96;37.31;101653.41;5007144;28;20505;-72
2021/10/10 04:01:15;;;;;;;14.00;6.93;;;;;;;9.95;37.39;101640.22;5007342;28;20141;-72
2021/10/10 04:03:42;;;;;;;17.30;7.67;;;;;;;9.90;37.29;101635.94;5008337;28;20081;-72
2021/10/10 04:06:08;;;;;;;18.80;7.43;;;;;;;9.89;37.32;101648.72;5007942;28;20050;-72
2021/10/10 04:08:41;;;;;;;13.33;6.27;;;;;;;9.88;37.03;101649.88;5008734;28;20557;-74
2021/10/10 04:11:08;;;;;;;13.83;6.27;;;;;;;9.85;37.01;101639.75;5003261;28;20073;-72
2021/10/10 04:13:35;;;;;;;15.53;6.60;;;;;;;9.85;36.97;101642.47;5008842;28;20158;-74
2021/10/10 04:16:01;;;;;;;17.47;7.13;;;;;;;9.81;37.61;101638.97;5005327;28;20045;-72
2021/10/10 04:18:28;;;;;;;13.23;6.67;;;;;;;9.80;37.43;101645.53;5008285;28;20379;-73
2021/10/10 04:20:58;;;;;;;14.03;6.30;;;;;;;9.75;38.09;101651.28;5036452;28;20140;-73
2021/10/10 04:23:25;;;;;;;14.80;5.57;;;;;;;9.76;37.74;101639.28;5008366;28;20062;-73
2021/10/10 04:25:51;;;;;;;11.23;5.73;;;;;;;9.74;37.78;101646.25;5007788;28;20140;-73
2021/10/10 04:28:18;;;;;;;11.87;5.60;;;;;;;9.71;37.71;101652.41;5003854;28;20069;-73
2021/10/10 04:30:45;;;;;;;9.67;5.77;;;;;;;9.69;37.88;101650.06;5013827;28;20696;-73
2021/10/10 04:33:12;;;;;;;11.33;5.37;;;;;;;9.67;37.83;101652.41;5009165;28;20100;-73
2021/10/10 04:35:38;;;;;;;9.03;5.30;;;;;;;9.68;37.92;101655.91;5006053;28;20133;-73
2021/10/10 04:38:05;;;;;;;13.33;5.77;;;;;;;9.64;37.75;101658.56;5000567;28;20125;-73
2021/10/10 04:40:32;;;;;;;11.50;5.63;;;;;;;9.64;37.78;101658.56;5017134;28;20050;-73
2021/10/10 04:42:59;;;;;;;8.77;5.30;;;;;;;9.66;37.91;101661.69;5008889;28;20085;-74
2021/10/10 04:45:25;;;;;;;8.83;5.80;;;;;;;9.67;37.73;101660.53;5010401;28;20485;-74
2021/10/10 04:47:52;;;;;;;11.50;6.17;;;;;;;9.65;37.84;101664.78;5006022;28;20073;-74
2021/10/10 04:50:19;;;;;;;13.13;6.70;;;;;;;9.66;38.06;101666.34;5007675;28;20077;-73
2021/10/10 04:52:46;;;;;;;10.50;5.50;;;;;;;9.71;37.97;101660.56;5005033;28;20089;-73
2021/10/10 04:55:13;;;;;;;13.30;6.10;;;;;;;9.70;38.12;101673.31;5019850;28;20913;-72
2021/10/10 04:57:40;;;;;;;10.60;5.97;;;;;;;9.70;38.32;101667.13;5002738;28;20394;-74
2021/10/10 05:00:08;;;;;;;10.30;6.27;;;;;;;9.70;37.97;101673.31;5005864;28;20180;-73
2021/10/10 05:02:34;;;;;;;12.23;6.30;;;;;;;9.72;38.05;101664.81;4998593;28;20085;-73
2021/10/10 05:05:02;;;;;;;13.43;5.40;;;;;;;9.74;38.43;101674.16;5010284;28;20070;-72
2021/10/10 05:07:29;;;;;;;8.90;5.17;;;;;;;9.76;38.27;101666.41;5004884;28;20422;-72
2021/10/10 05:09:56;;;;;;;11.40;5.40;;;;;;;9.74;38.61;101667.94;5003858;28;20070;-72
2021/10/10 05:12:28;;;;;;;9.80;5.93;;;;;;;9.75;38.69;101670.28;5005288;28;20058;-72
2021/10/10 05:14:54;;;;;;;13.50;5.77;;;;;;;9.78;38.57;101672.25;5003497;28;20050;-72
2021/10/10 05:17:21;;;;;;;13.13;5.80;;;;;;;9.80;39.05;101661.03;5008911;28;20406;-75
2021/10/10 05:19:48;;;;;;;11.70;5.80;;;;;;;9.81;38.70;101670.72;5006349;28;20141;-72
2021/10/10 05:22:15;;;;;;;12.47;6.60;;;;;;;9.80;38.39;101672.66;5004035;28;20070;-72
2021/10/10 05:24:41;;;;;;;9.77;5.53;;;;;;;9.83;38.38;101666.47;5007899;28;20084;-74
2021/10/10 05:27:08;;;;;;;12.70;5.57;;;;;;;9.85;38.71;101666.88;5007648;28;20100;-73
2021/10/10 05:29:39;;;;;;;16.10;6.67;;;;;;;9.88;38.91;101671.56;5004428;28;20078;-74
2021/10/10 05:32:06;;;;;;;18.13;6.37;;;;;;;9.92;38.46;101666.94;5008019;28;20056;-73
2021/10/10 05:34:33;;;;;;;11.77;5.43;;;;;;;9.97;38.25;101670.44;5004876;28;20112;-72
2021/10/10 05:37:00;;;;;;;12.80;6.10;;;;;;;10.02;38.37;101679.03;5008554;28;20137;-73
2021/10/10 05:39:26;;;;;;;11.30;5.60;;;;;;;10.04;38.68;101681.38;5005745;28;20699;-74
2021/10/10 05:41:53;;;;;;;8.00;5.23;;;;;;;10.10;38.30;101680.66;5003504;28;20056;-74
2021/10/10 05:44:20;;;;;;;11.27;5.33;;;;;;;10.11;38.28;101676.00;5008506;28;20536;-72
2021/10/10 05:46:47;;;;;;;8.70;5.13;;;;;;;10.17;38.23;101679.91;5004077;28;20078;-72
2021/10/10 05:49:14;;;;;;;9.97;5.03;;;;;;;10.17;38.74;101675.25;5003024;28;20058;-71
2021/10/10 05:51:44;;;;;;;11.13;5.53;;;;;;;10.02;39.74;101689.88;5008265;28;20108;-71
2021/10/10 05:54:14;;;;;;;14.47;5.40;;;;;;;9.97;39.29;101671.22;5008664;28;20054;-74
2021/10/10 05:56:41;;;;;;;17.23;6.13;;;;;;;9.97;39.46;101665.81;5001947;28;20081;-73
2021/10/10 05:59:09;;;;;;;16.23;5.47;;;;;;;9.89;39.59;101680.47;5009769;28;20133;-71
2021/10/10 06:01:38;;;;;;;12.63;6.20;;;;;;;10.01;38.68;101682.13;5006686;28;20493;-72
2021/10/10 06:04:06;;;;;;;17.17;6.73;;;;;;;10.04;38.16;101675.94;5009153;28;20441;-73
2021/10/10 06:06:33;;;;;;;16.93;8.23;;;;;;;10.08;37.88;101676.75;5026595;28;20038;-74
2021/10/10 06:09:00;;;;;;;18.73;8.23;;;;;;;10.20;37.23;101679.19;5008970;28;20437;-73
2021/10/10 06:11:28;;;;;;;18.07;7.20;;;;;;;10.27;37.57;101676.53;5011418;28;20081;-74
2021/10/10 06:13:55;;;;;;;39.97;14.47;;;;;;;10.34;37.58;101679.28;5012331;28;20137;-73
2021/10/10 06:16:23;;;;;;;28.50;10.20;;;;;;;10.44;37.34;101681.28;5013344;28;20119;-75
2021/10/10 06:18:50;;;;;;;21.17;9.63;;;;;;;10.57;37.15;101679.81;5009341;28;20079;-74
2021/10/10 06:21:17;;;;;;;23.23;8.97;;;;;;;10.52;35.79;101684.81;5010756;28;20133;-73
2021/10/10 06:23:43;;;;;;;26.23;10.30;;;;;;;10.53;35.53;101681.72;5012254;28;20089;-72
2021/10/10 06:26:10;;;;;;;16.50;7.63;;;;;;;10.64;35.58;101691.84;5040366;28;20473;-73
2021/10/10 06:28:37;;;;;;;17.33;8.03;;;;;;;10.70;35.81;101688.41;5008305;28;20046;-73
2021/10/10 06:31:04;;;;;;;20.00;8.37;;;;;;;10.78;35.31;101697.38;5007666;28;20049;-73
2021/10/10 06:33:31;;;;;;;17.87;8.57;;;;;;;10.67;34.98;101701.97;5006419;28;20467;-73
2021/10/10 06:35:57;;;;;;;21.13;9.03;;;;;;;10.69;34.78;101694.22;5004820;28;20077;-73
2021/10/10 06:38:24;;;;;;;18.07;8.63;;;;;;;10.74;34.76;101702.00;5005210;28;20133;-75
2021/10/10 06:40:51;;;;;;;19.80;8.50;;;;;;;10.87;35.40;101695.06;5010642;28;20053;-72
2021/10/10 06:43:18;;;;;;;18.53;7.40;;;;;;;10.97;34.91;101694.34;5008739;28;20056;-74
2021/10/10 06:45:45;;;;;;;14.73;7.00;;;;;;;10.83;34.63;101688.88;5010624;28;20136;-73
2021/10/10 06:48:11;;;;;;;11.97;5.97;;;;;;;10.75;34.39;101698.13;5005074;28;20128;-73
2021/10/10 06:50:38;;;;;;;11.63;5.47;;;;;;;10.78;34.42;101702.81;5001857;28;20080;-73
2021/10/10 06:53:05;;;;;;;12.50;6.37;;;;;;;10.93;35.35;101704.44;5009976;28;20054;-74
2021/10/10 06:55:32;;;;;;;13.37;6.70;;;;;;;10.95;35.01;101704.81;5011122;28;20081;-73
2021/10/10 06:57:59;;;;;;;14.53;6.87;;;;;;;11.01;34.61;101702.53;5010776;28;20792;-73
2021/10/10 07:00:26;;;;;;;13.53;6.47;;;;;;;10.96;34.52;101702.88;5008472;28;20168;-74
2021/10/10 07:02:52;;;;;;;15.13;6.90;;;;;;;11.03;34.72;101703.69;5007921;28;20046;-73
2021/10/10 07:05:19;;;;;;;13.87;6.50;;;;;;;11.12;34.02;101706.81;5020026;28;20046;-73
2021/10/10 07:07:46;;;;;;;15.23;7.47;;;;;;;10.99;34.95;101708.34;5009393;28;20141;-74
2021/10/10 07:10:13;;;;;;;22.23;8.27;;;;;;;11.07;34.76;101709.94;5024906;28;20052;-72
2021/10/10 07:12:40;;;;;;;16.07;6.60;;;;;;;11.13;34.72;101692.06;5011260;28;20081;-73
2021/10/10 07:15:08;;;;;;;17.77;7.00;;;;;;;11.20;34.73;101697.53;5010084;28;20145;-73
2021/10/10 07:17:35;;;;;;;17.70;7.50;;;;;;;11.26;34.77;101701.44;5007116;28;20089;-72
2021/10/10 07:22:31;;;;;;;19.30;7.57;;;;;;;11.31;34.46;101696.81;5012686;28;20053;-73
2021/10/10 07:25:04;;;;;;;37.17;9.63;;;;;;;11.40;34.32;101699.91;5011906;28;20128;-72
2021/10/10 07:27:38;;;;;;;28.95;10.50;;;;;;;11.53;34.70;101698.41;5009645;28;20129;-74
2021/10/10 07:30:08;;;;;;;31.23;10.70;;;;;;;11.56;34.90;101689.50;5008416;28;20142;-74
2021/10/10 07:32:34;;;;;;;22.20;8.97;;;;;;;11.59;34.97;101692.19;5005492;28;20088;-74
2021/10/10 07:35:03;;;;;;;26.60;10.57;;;;;;;11.69;34.82;101685.22;5006615;28;20133;-74
2021/10/10 07:37:29;;;;;;;25.47;9.77;;;;;;;11.85;34.80;101693.03;5008941;28;20050;-74
2021/10/10 07:39:56;;;;;;;22.93;9.30;;;;;;;11.77;34.86;101681.38;5022684;28;20085;-72
2021/10/10 07:42:28;;;;;;;26.80;10.37;;;;;;;11.80;34.26;101688.75;5007677;28;20180;-73
2021/10/10 07:45:04;;;;;;;27.23;9.40;;;;;;;11.83;34.25;101685.25;5005937;28;20140;-73
2021/10/10 07:47:46;;;;;;;28.23;9.20;;;;;;;11.92;34.50;101682.91;5001855;28;20137;-73
2021/10/10 07:50:14;;;;;;;18.30;7.73;;;;;;;12.08;34.83;101679.00;5005113;28;20135;-72
2021/10/10 07:52:41;;;;;;;15.70;7.13;;;;;;;12.08;34.62;101679.00;5005017;28;20116;-72
2021/10/10 07:55:08;;;;;;;15.90;7.00;;;;;;;12.20;34.98;101667.75;5010333;28;20076;-73
2021/10/10 07:57:35;;;;;;;15.60;7.90;;;;;;;12.30;34.77;101667.72;5009667;28;20161;-74
2021/10/10 08:00:04;;;;;;;14.97;7.10;;;;;;;12.32;34.58;101672.75;5008757;28;20046;-74
2021/10/10 08:02:48;;;;;;;15.93;6.73;;;;;;;12.47;34.28;101662.63;5006470;28;20477;-74
2021/10/10 08:05:16;;;;;;;18.35;7.00;;;;;;;12.56;34.59;101660.25;5005905;28;20041;-74
2021/10/10 08:07:43;;;;;;;18.37;7.40;;;;;;;12.66;34.49;101669.56;5009674;28;20054;-73
2021/10/10 08:10:10;;;;;;;14.23;6.07;;;;;;;12.72;34.64;101668.00;5004921;28;20050;-74
2021/10/10 08:12:37;;;;;;;16.53;6.83;;;;;;;12.81;34.54;101671.06;5010684;28;20161;-72
2021/10/10 08:15:05;;;;;;;18.37;6.57;;;;;;;12.81;34.53;101665.63;5008192;28;20173;-74
2021/10/10 08:17:32;;;;;;;18.73;8.17;;;;;;;12.87;34.71;101664.03;5013041;28;20077;-72
2021/10/10 08:19:58;;;;;;;17.63;8.50;;;;;;;12.92;35.10;101671.81;5009441;28;20096;-76
2021/10/10 08:22:25;;;;;;;21.40;9.27;;;;;;;12.97;35.42;101674.13;5008758;28;20049;-74
2021/10/10 08:24:52;;;;;;;20.27;8.63;;;;;;;13.07;35.41;101670.56;5024444;28;20088;-75
2021/10/10 08:27:19;;;;;;;24.63;10.97;;;;;;;13.09;35.46;101668.22;5009604;28;20145;-74
2021/10/10 08:29:45;;;;;;;28.73;9.60;;;;;;;13.10;35.61;101672.50;5010764;28;20505;-72
2021/10/10 08:32:12;;;;;;;22.97;10.20;;;;;;;13.13;35.68;101668.97;4997383;28;20128;-74
2021/10/10 08:34:39;;;;;;;36.53;13.07;;;;;;;13.17;35.82;101664.31;5006552;28;20151;-73
2021/10/10 08:37:06;;;;;;;17.60;8.97;;;;;;;13.17;35.27;101664.31;5001105;28;20045;-73
2021/10/10 08:39:32;;;;;;;10.60;5.07;;;;;;;13.26;34.78;101661.91;5009235;28;20136;-73
2021/10/10 08:42:02;;;;;;;12.47;5.83;;;;;;;13.38;32.36;101662.63;5002936;28;20148;-74
2021/10/10 08:44:36;;;;;;;8.47;4.37;;;;;;;13.47;31.56;101658.28;5003811;28;20508;-74
2021/10/10 08:47:07;;;;;;;14.63;5.03;;;;;;;13.58;30.11;101647.28;4997574;28;20046;-77
2021/10/10 08:49:37;;;;;;;9.93;4.70;;;;;;;13.70;30.56;101646.06;5006115;28;20050;-72
2021/10/10 08:52:04;;;;;;;8.87;4.90;;;;;;;13.81;29.27;101649.44;5033467;28;20121;-73
2021/10/10 08:54:48;;;;;;;11.15;5.43;;;;;;;13.83;29.10;101647.09;5010756;28;20058;-73
2021/10/10 08:57:15;;;;;;;11.27;6.10;;;;;;;13.91;29.53;101643.13;5012605;28;20042;-73
2021/10/10 08:59:46;;;;;;;10.73;5.13;;;;;;;13.93;28.83;101646.25;5006584;28;20506;-73
2021/10/10 09:02:19;;;;;;;9.17;5.33;;;;;;;14.04;29.46;101640.66;5006770;28;20125;-73
2021/10/10 09:04:46;;;;;;;12.48;5.50;;;;;;;14.06;28.62;101650.00;5008614;28;20054;-75
2021/10/10 09:07:13;;;;;;;9.57;5.47;;;;;;;14.11;27.98;101637.88;5007760;28;20092;-75
2021/10/10 09:09:41;;;;;;;9.43;5.47;;;;;;;14.20;28.65;101654.53;5009228;28;20206;-75
2021/10/10 09:12:10;;;;;;;9.67;5.20;;;;;;;14.29;28.50;101641.97;5009502;28;20524;-74
2021/10/10 09:14:46;;;;;;;10.73;5.20;;;;;;;14.39;27.32;101639.53;5005760;28;20133;-75
2021/10/10 09:17:14;;;;;;;11.80;5.70;;;;;;;14.38;27.75;101644.22;5013708;28;20042;-75
2021/10/10 09:19:49;;;;;;;14.13;5.17;;;;;;;14.50;27.23;101641.00;5009869;28;20097;-73
2021/10/10 09:22:17;;;;;;;12.43;5.17;;;;;;;14.60;27.86;101645.56;5005343;28;20054;-76
2021/10/10 09:24:50;;;;;;;8.00;5.70;;;;;;;14.72;27.83;101635.28;5007094;28;20674;-74
2021/10/10 09:27:18;;;;;;;9.10;4.93;;;;;;;14.71;27.23;101639.19;5005579;28;20473;-75
2021/10/10 09:29:49;;;;;;;11.63;5.97;;;;;;;14.80;26.82;101636.75;5008816;28;20136;-75
2021/10/10 09:32:24;;;;;;;10.17;5.20;;;;;;;14.81;26.34;101632.81;5009136;28;20054;-74
2021/10/10 09:34:51;;;;;;;9.27;5.50;;;;;;;14.78;27.00;101636.38;5008037;28;20138;-75
2021/10/10 09:37:31;;;;;;;12.05;5.35;;;;;;;14.87;26.16;101642.13;5004750;28;20409;-73
2021/10/10 09:40:07;;;;;;;10.23;5.88;;;;;;;14.86;26.49;101635.09;5012841;28;20840;-73
2021/10/10 09:42:47;;;;;;;8.17;5.73;;;;;;;14.86;26.61;101640.56;5007345;28;20455;-75
2021/10/10 09:45:25;;;;;;;14.70;5.67;;;;;;;14.91;26.95;101634.63;5010145;28;20068;-81
2021/10/10 09:48:00;;;;;;;14.40;5.77;;;;;;;14.91;26.31;101637.34;5016339;28;20475;-78
2021/10/10 09:50:30;;;;;;;11.80;5.50;;;;;;;14.91;26.81;101637.34;5043918;28;20496;-74
2021/10/10 09:53:02;;;;;;;9.80;5.28;;;;;;;14.90;26.53;101628.38;5011252;28;20518;-74
2021/10/10 09:55:31;;;;;;;10.38;6.13;;;;;;;14.87;27.10;101636.66;5015126;28;20058;-75
2021/10/10 09:57:59;;;;;;;15.25;6.63;;;;;;;14.85;27.14;101639.03;5012651;28;20057;-75
2021/10/10 10:00:32;;;;;;;10.93;6.30;;;;;;;14.86;26.74;101635.09;5011456;28;20057;-76
2021/10/10 10:03:09;;;;;;;10.40;6.13;;;;;;;14.83;26.96;101627.72;5005114;28;20136;-78
2021/10/10 10:05:40;;;;;;;15.70;5.87;;;;;;;14.85;26.86;101630.81;5010030;28;20053;-78
2021/10/10 10:08:07;;;;;;;11.00;7.13;;;;;;;14.90;27.00;101630.34;5007049;28;20050;-78
2021/10/10 10:10:34;;;;;;;11.73;6.20;;;;;;;14.94;26.99;101626.38;5006520;28;20054;-76
2021/10/10 10:13:02;;;;;;;10.73;6.47;;;;;;;15.08;27.04;101628.16;5041558;28;20453;-74
2021/10/10 10:15:35;;;;;;;9.23;5.20;;;;;;;15.19;26.77;101628.00;5010407;28;20050;-76
2021/10/10 10:18:02;;;;;;;9.98;5.53;;;;;;;15.32;27.02;101629.75;5002225;28;20054;-73
2021/10/10 10:20:30;;;;;;;12.70;6.90;;;;;;;15.45;26.91;101631.91;5006068;28;20049;-78
2021/10/10 10:22:58;;;;;;;12.30;6.27;;;;;;;15.60;26.68;101623.09;5010619;28;20073;-76
2021/10/10 10:25:28;;;;;;;10.70;5.90;;;;;;;15.72;26.89;101632.69;5011661;28;20150;-77
2021/10/10 10:27:56;;;;;;;17.17;6.70;;;;;;;15.87;26.73;101625.75;5009828;28;20050;-79
2021/10/10 10:30:24;;;;;;;9.82;5.68;;;;;;;15.89;24.35;101615.16;5007548;28;20080;-81
2021/10/10 10:32:53;;;;;;;11.27;6.57;;;;;;;15.95;24.73;101621.72;5012755;28;20050;-83
2021/10/10 10:35:21;;;;;;;10.38;5.20;;;;;;;15.96;24.87;101615.06;5011542;28;20050;-79
2021/10/10 10:37:51;;;;;;;10.73;5.50;;;;;;;16.05;24.59;101617.25;5018162;28;20054;-79
2021/10/10 10:40:27;;;;;;;7.65;5.13;;;;;;;16.06;24.04;101609.81;5008732;28;20204;-79
2021/10/10 10:42:56;;;;;;;9.65;5.40;;;;;;;15.99;23.91;101611.47;5006652;28;20077;-78
2021/10/10 10:45:41;;;;;;;10.65;5.30;;;;;;;16.03;24.04;101605.94;5005269;28;20104;-77
2021/10/10 10:48:31;;;;;;;9.13;5.32;;;;;;;16.18;24.44;101617.41;5007585;28;20135;-78
2021/10/10 10:51:26;;;;;;;8.77;5.22;;;;;;;16.03;23.51;101600.47;5008273;28;20061;-79
2021/10/10 10:53:53;;;;;;;11.50;5.47;;;;;;;16.01;23.90;101611.84;5010155;28;20097;-79
2021/10/10 10:56:32;;;;;;;10.50;5.15;;;;;;;16.01;24.04;101614.56;5015127;28;20525;-80
2021/10/10 10:58:59;;;;;;;9.07;5.15;;;;;;;15.95;23.68;101616.25;5010000;28;20114;-79
2021/10/10 11:01:46;;;;;;;6.88;4.45;;;;;;;15.90;23.85;101613.19;5023112;28;20466;-81
2021/10/10 11:04:28;;;;;;;7.22;5.15;;;;;;;15.93;23.85;101604.94;5004567;28;20050;-78
2021/10/10 11:06:58;;;;;;;11.90;6.47;;;;;;;15.92;24.17;101610.81;5009250;28;20438;-80
2021/10/10 11:09:26;;;;;;;8.55;6.25;;;;;;;15.89;24.17;101601.47;5038641;28;20454;-79
2021/10/10 11:11:59;;;;;;;11.30;6.13;;;;;;;15.91;24.27;101610.03;5011886;28;20486;-78
2021/10/10 11:14:29;;;;;;;10.48;5.78;;;;;;;15.94;24.68;101608.44;5018279;28;20140;-80
2021/10/10 11:17:06;;;;;;;13.38;6.38;;;;;;;15.96;24.45;101612.31;5009663;28;20111;-79
2021/10/10 11:19:33;;;;;;;10.77;6.03;;;;;;;15.93;24.15;101613.13;5011052;28;20145;-79
2021/10/10 11:22:00;;;;;;;9.10;5.38;;;;;;;15.88;24.26;101599.94;5009765;28;20082;-80
2021/10/10 11:24:27;;;;;;;13.52;5.53;;;;;;;15.88;24.48;101605.41;5008871;28;20137;-79
2021/10/10 11:26:56;;;;;;;8.85;5.35;;;;;;;15.86;24.30;101607.78;5026988;28;20584;-78